Ponderosa High School (Parker), Colorado
Current Conditions -  °F | °C
As of 2:53 AM on Friday 24 Oct 2014 (Local Time) from KAPA Reporting Station
Broken Clouds Broken Clouds  
Wind Chill: 59°   Ceiling: 19000
Heat Index: 59°   Visibility: 10mi
Dew Point: 26°   Wind: 10mph
Humidity: 28%   Direction: 180°S
Pressure: 30.17"   Gusts: NA
Location:  39.43627°N, 104.7562°W
Report Text: KAPA 240853Z 18009KT 10SM FEW130 BKN190 15/M03 A3017 RMK AO2 SLP158 T01501033 53002
Loading
Personal Weather Stations






























Interactive Weather Map
Tropical Storm Tracking
New forecast layout! Learn more

10-Day Weather Forecast

Advertisements
Track Severe Weather on mobile